createdAt,value
2022-10-19T00:00:48.903Z,14.71
2022-10-19T00:03:56.386Z,14.61
2022-10-19T00:07:02.067Z,14.72
2022-10-19T00:10:07.827Z,14.74
2022-10-19T00:13:13.642Z,14.30
2022-10-19T00:16:20.146Z,14.31
2022-10-19T00:19:28.074Z,14.30
2022-10-19T00:22:33.716Z,14.41
2022-10-19T00:25:39.323Z,14.45
2022-10-19T00:28:45.547Z,14.45
2022-10-19T00:31:51.870Z,14.53
2022-10-19T00:34:56.936Z,14.45
2022-10-19T00:38:02.724Z,14.44
2022-10-19T00:41:07.919Z,14.48
2022-10-19T00:44:13.152Z,14.41
2022-10-19T00:47:23.403Z,14.39
2022-10-19T00:50:29.925Z,14.42
2022-10-19T00:53:37.171Z,14.47
2022-10-19T00:56:46.379Z,14.38
2022-10-19T00:59:52.416Z,14.33
2022-10-19T01:02:59.281Z,14.40
2022-10-19T01:06:05.073Z,14.40
2022-10-19T01:09:10.623Z,14.24
2022-10-19T01:12:32.818Z,14.25
2022-10-19T01:15:51.123Z,14.19
2022-10-19T01:19:41.203Z,14.14
2022-10-19T01:23:10.701Z,14.14
2022-10-19T01:26:22.035Z,14.00
2022-10-19T01:29:33.373Z,13.89
2022-10-19T01:32:51.957Z,14.01
2022-10-19T01:36:15.747Z,13.95
2022-10-19T01:39:52.412Z,13.98
2022-10-19T01:43:09.768Z,13.92
2022-10-19T01:46:39.034Z,13.83
2022-10-19T01:49:54.323Z,13.93
2022-10-19T01:53:00.360Z,13.83
2022-10-19T01:56:07.915Z,13.73
2022-10-19T01:59:16.049Z,13.76
2022-10-19T02:02:23.405Z,13.84
2022-10-19T02:05:33.377Z,13.74
2022-10-19T02:08:45.057Z,13.76
2022-10-19T02:12:01.499Z,13.64
2022-10-19T02:15:14.836Z,13.74
2022-10-19T02:18:31.562Z,13.66
2022-10-19T02:21:37.156Z,13.64
2022-10-19T02:24:42.932Z,13.65
2022-10-19T02:27:48.749Z,13.72
2022-10-19T02:30:54.472Z,13.74
2022-10-19T02:34:00.015Z,13.70
2022-10-19T02:37:06.272Z,13.81
2022-10-19T02:40:12.684Z,13.76
2022-10-19T02:43:21.851Z,13.67
2022-10-19T02:46:42.916Z,13.54
2022-10-19T02:49:49.353Z,13.58
2022-10-19T02:52:55.030Z,13.54
2022-10-19T02:56:00.656Z,13.46
2022-10-19T02:59:06.171Z,13.48
2022-10-19T03:02:12.795Z,13.38
2022-10-19T03:05:18.401Z,13.19
2022-10-19T03:08:23.984Z,13.00
2022-10-19T03:11:29.690Z,13.13
2022-10-19T03:14:34.957Z,13.20
2022-10-19T03:17:40.750Z,13.17
2022-10-19T03:20:46.093Z,13.15
2022-10-19T03:23:52.140Z,13.27
2022-10-19T03:26:57.622Z,13.29
2022-10-19T03:30:03.786Z,13.25
2022-10-19T03:33:09.139Z,13.29
2022-10-19T03:36:20.232Z,13.28
2022-10-19T03:39:26.160Z,13.23
2022-10-19T03:42:31.896Z,13.24
2022-10-19T03:45:37.699Z,13.23
2022-10-19T03:48:44.056Z,13.22
2022-10-19T03:51:49.627Z,13.07
2022-10-19T03:54:54.853Z,13.14
2022-10-19T03:58:00.277Z,13.25
2022-10-19T04:01:21.715Z,13.18
2022-10-19T04:04:27.185Z,13.19
2022-10-19T04:07:33.508Z,13.18
2022-10-19T04:10:39.458Z,13.23
2022-10-19T04:13:44.961Z,13.22
2022-10-19T04:16:50.882Z,13.06
2022-10-19T04:19:56.123Z,13.06
2022-10-19T04:23:01.566Z,13.02
2022-10-19T04:26:08.384Z,12.91
2022-10-19T04:29:16.208Z,12.89
2022-10-19T04:32:21.400Z,12.96
2022-10-19T04:35:27.027Z,12.99
2022-10-19T04:38:33.676Z,12.86
2022-10-19T04:41:39.658Z,12.98
2022-10-19T04:44:45.449Z,12.93
2022-10-19T04:47:51.098Z,12.95
2022-10-19T04:50:57.105Z,12.69
2022-10-19T04:54:04.231Z,12.59
2022-10-19T04:57:09.542Z,12.68
2022-10-19T05:00:15.714Z,12.84
2022-10-19T05:03:21.987Z,12.88
2022-10-19T05:06:28.303Z,12.80
2022-10-19T05:09:33.880Z,12.77
2022-10-19T05:12:39.747Z,12.78
2022-10-19T05:15:56.559Z,12.66
2022-10-19T05:19:02.360Z,12.71
2022-10-19T05:22:07.414Z,12.49
2022-10-19T05:25:12.670Z,12.48
2022-10-19T05:28:17.753Z,12.51
2022-10-19T05:31:25.467Z,12.55
2022-10-19T05:34:30.636Z,12.52
2022-10-19T05:37:36.479Z,12.49
2022-10-19T05:40:49.197Z,12.52
2022-10-19T05:43:59.710Z,12.61
2022-10-19T05:47:05.452Z,12.59
2022-10-19T05:50:10.832Z,12.57
2022-10-19T05:53:16.526Z,12.62
2022-10-19T05:56:26.960Z,12.69
2022-10-19T05:59:32.562Z,12.74
2022-10-19T06:02:38.208Z,12.83
2022-10-19T06:05:43.707Z,12.78
2022-10-19T06:08:50.287Z,12.78
2022-10-19T06:11:55.737Z,12.74
2022-10-19T06:15:01.056Z,12.85
2022-10-19T06:18:09.074Z,13.00
2022-10-19T06:21:18.273Z,12.99
2022-10-19T06:24:23.768Z,13.08
2022-10-19T06:27:29.669Z,13.02
2022-10-19T06:30:34.959Z,12.95
2022-10-19T06:33:41.155Z,12.69
2022-10-19T06:36:46.752Z,12.61
2022-10-19T06:39:52.642Z,12.93
2022-10-19T06:42:59.158Z,13.05
2022-10-19T06:46:10.117Z,12.89
2022-10-19T06:49:15.922Z,12.81
2022-10-19T06:52:21.776Z,12.94
2022-10-19T06:55:27.652Z,13.00
2022-10-19T06:58:39.043Z,13.25
2022-10-19T07:01:44.591Z,13.34
2022-10-19T07:04:50.193Z,13.61
2022-10-19T07:07:57.342Z,13.75
2022-10-19T07:11:06.609Z,13.58
2022-10-19T07:14:12.091Z,13.55
2022-10-19T07:17:17.818Z,13.98
2022-10-19T07:20:23.065Z,13.62
2022-10-19T07:23:30.391Z,13.88
2022-10-19T07:26:36.359Z,14.09
2022-10-19T07:29:41.862Z,14.24
2022-10-19T07:32:47.621Z,14.42
2022-10-19T07:35:59.610Z,14.53
2022-10-19T07:39:06.542Z,14.66
2022-10-19T07:42:12.159Z,14.69
2022-10-19T07:45:17.879Z,14.91
2022-10-19T07:48:24.387Z,14.91
2022-10-19T07:51:30.261Z,14.99
2022-10-19T07:54:35.949Z,15.06
2022-10-19T07:57:43.650Z,15.15
2022-10-19T08:00:51.022Z,15.21
2022-10-19T08:07:24.163Z,15.54
2022-10-19T08:10:30.004Z,15.65
2022-10-19T08:13:35.974Z,15.72
2022-10-19T08:16:44.618Z,15.82
2022-10-19T08:19:50.101Z,15.94
2022-10-19T08:22:58.121Z,16.13
2022-10-19T08:26:04.963Z,16.23
2022-10-19T08:29:16.173Z,16.40
2022-10-19T08:32:22.229Z,16.48
2022-10-19T08:35:27.619Z,16.52
2022-10-19T08:38:33.115Z,16.48
2022-10-19T08:41:41.669Z,16.70
2022-10-19T08:45:01.926Z,16.87
2022-10-19T08:48:18.897Z,16.99
2022-10-19T08:51:24.780Z,17.03
2022-10-19T08:54:49.205Z,17.15
2022-10-19T08:58:05.541Z,17.26
2022-10-19T09:01:45.233Z,17.31
2022-10-19T09:05:02.607Z,17.41
2022-10-19T09:08:15.303Z,17.53
2022-10-19T09:11:26.271Z,17.58
2022-10-19T09:14:34.078Z,17.67
2022-10-19T09:17:39.719Z,17.81
2022-10-19T09:20:51.912Z,17.82
2022-10-19T09:24:07.051Z,17.87
2022-10-19T09:27:30.837Z,17.96
2022-10-19T09:30:39.439Z,18.06
2022-10-19T09:33:52.457Z,18.14
2022-10-19T09:36:59.982Z,18.22
2022-10-19T09:40:07.522Z,18.39
2022-10-19T09:43:20.246Z,18.33
2022-10-19T09:46:42.353Z,18.40
2022-10-19T09:49:49.486Z,18.64
2022-10-19T09:53:01.565Z,18.57
2022-10-19T09:56:09.424Z,18.64
2022-10-19T09:59:23.855Z,18.70
2022-10-19T10:02:34.050Z,18.63
2022-10-19T10:05:41.693Z,18.77
2022-10-19T10:08:59.282Z,19.01
2022-10-19T10:12:08.779Z,18.97
2022-10-19T10:15:26.942Z,18.97
2022-10-19T10:18:39.521Z,19.09
2022-10-19T10:21:54.930Z,19.18
2022-10-19T10:25:00.505Z,19.20
2022-10-19T10:28:26.980Z,19.33
2022-10-19T10:31:32.377Z,19.27
2022-10-19T10:35:02.078Z,19.43
2022-10-19T10:38:17.384Z,19.46
2022-10-19T10:41:24.028Z,19.49
2022-10-19T10:44:31.345Z,19.35
2022-10-19T10:47:39.704Z,19.54
2022-10-19T10:50:45.914Z,19.67
2022-10-19T10:53:51.376Z,19.73
2022-10-19T10:57:17.160Z,19.66
2022-10-19T11:00:24.440Z,19.80
2022-10-19T11:03:32.184Z,19.89
2022-10-19T11:06:44.871Z,20.01
2022-10-19T11:09:54.996Z,20.09
2022-10-19T11:13:18.855Z,20.00
2022-10-19T11:16:40.419Z,20.10
2022-10-19T11:19:45.987Z,20.17
2022-10-19T11:23:01.697Z,20.20
2022-10-19T11:26:25.723Z,20.25
2022-10-19T11:29:46.574Z,20.22
2022-10-19T11:33:13.137Z,20.38
2022-10-19T11:36:52.383Z,20.58
2022-10-19T11:40:19.846Z,20.75
2022-10-19T11:43:52.425Z,20.88
2022-10-19T11:47:12.749Z,20.80
2022-10-19T11:50:32.103Z,20.83
2022-10-19T11:53:56.602Z,20.97
2022-10-19T11:57:20.943Z,21.12
2022-10-19T12:00:45.604Z,21.15
2022-10-19T12:03:57.256Z,21.37
2022-10-19T12:07:51.530Z,21.39
2022-10-19T12:11:28.983Z,21.34
2022-10-19T12:14:41.917Z,21.42
2022-10-19T12:17:50.638Z,21.65
2022-10-19T12:20:59.860Z,21.65
2022-10-19T12:24:12.703Z,21.97
2022-10-19T12:27:27.303Z,21.80
2022-10-19T12:30:33.392Z,21.85
2022-10-19T12:33:58.900Z,21.69
2022-10-19T12:37:24.295Z,21.95
2022-10-19T12:40:46.482Z,21.94
2022-10-19T12:43:57.327Z,21.79
2022-10-19T12:47:18.001Z,21.89
2022-10-19T12:50:48.941Z,22.04
2022-10-19T12:54:09.838Z,22.02
2022-10-19T12:57:27.962Z,22.06
2022-10-19T13:00:36.486Z,22.03
2022-10-19T13:03:45.288Z,22.31
2022-10-19T13:07:01.885Z,22.26
2022-10-19T13:10:19.396Z,22.32
2022-10-19T13:13:53.807Z,22.36
2022-10-19T13:17:05.155Z,22.22
2022-10-19T13:20:16.605Z,22.25
2022-10-19T13:23:30.910Z,22.31
2022-10-19T13:26:36.874Z,22.39
2022-10-19T13:29:45.908Z,22.38
2022-10-19T13:32:51.472Z,22.40
2022-10-19T13:35:59.062Z,22.63
2022-10-19T13:39:06.286Z,22.59
2022-10-19T13:42:26.361Z,22.49
2022-10-19T13:45:31.777Z,22.65
2022-10-19T13:49:06.467Z,22.62
2022-10-19T13:52:37.735Z,22.61
2022-10-19T13:55:56.157Z,22.54
2022-10-19T13:59:28.377Z,22.82
2022-10-19T14:03:10.810Z,22.70
2022-10-19T14:06:24.754Z,22.57
2022-10-19T14:09:43.091Z,22.59
2022-10-19T14:12:50.092Z,22.49
2022-10-19T14:15:58.375Z,22.44
2022-10-19T14:19:03.629Z,22.43
2022-10-19T14:22:30.251Z,22.54
2022-10-19T14:25:36.186Z,22.53
2022-10-19T14:28:43.450Z,22.51
2022-10-19T14:31:49.480Z,22.50
2022-10-19T14:34:58.059Z,22.44
2022-10-19T14:38:06.014Z,22.39
2022-10-19T14:41:37.751Z,22.37
2022-10-19T14:44:44.864Z,22.33
2022-10-19T14:48:07.861Z,22.39
2022-10-19T14:51:45.385Z,22.46
2022-10-19T14:54:54.420Z,22.41
2022-10-19T14:57:59.966Z,22.37
2022-10-19T15:01:06.942Z,22.21
2022-10-19T15:04:12.275Z,22.17
2022-10-19T15:07:30.956Z,22.12
2022-10-19T15:10:46.033Z,22.07
2022-10-19T15:14:05.926Z,21.90
2022-10-19T15:17:32.173Z,21.85
2022-10-19T15:20:49.451Z,21.93
2022-10-19T15:24:25.805Z,21.76
2022-10-19T15:27:37.054Z,21.63
2022-10-19T15:30:42.058Z,21.53
2022-10-19T15:33:51.275Z,21.54
2022-10-19T15:37:08.296Z,21.44
2022-10-19T15:40:29.326Z,21.29
2022-10-19T15:43:44.574Z,21.18
2022-10-19T15:46:50.183Z,21.09
2022-10-19T15:50:01.677Z,21.01
2022-10-19T15:53:07.137Z,20.90
2022-10-19T15:56:15.080Z,20.80
2022-10-19T15:59:24.321Z,20.61
2022-10-19T16:02:29.588Z,20.46
2022-10-19T16:05:38.449Z,20.38
2022-10-19T16:08:47.423Z,20.27
2022-10-19T16:11:57.177Z,20.09
2022-10-19T16:15:02.534Z,19.98
2022-10-19T16:18:07.820Z,19.89
2022-10-19T16:21:13.687Z,19.82
2022-10-19T16:24:19.211Z,19.74
2022-10-19T16:27:24.891Z,19.63
2022-10-19T16:30:30.405Z,19.57
2022-10-19T16:33:36.079Z,19.49
2022-10-19T16:36:41.514Z,19.49
2022-10-19T16:39:46.746Z,19.45
2022-10-19T16:42:52.485Z,19.35
2022-10-19T16:45:58.357Z,19.20
2022-10-19T16:49:03.913Z,19.18
2022-10-19T16:52:14.993Z,19.11
2022-10-19T16:55:20.033Z,18.95
2022-10-19T16:58:25.454Z,18.89
2022-10-19T17:01:32.207Z,18.83
2022-10-19T17:04:37.986Z,18.85
2022-10-19T17:07:43.376Z,18.77
2022-10-19T17:10:49.033Z,18.72
2022-10-19T17:13:57.497Z,18.74
2022-10-19T17:17:03.188Z,18.66
2022-10-19T17:20:11.464Z,18.63
2022-10-19T17:23:16.710Z,18.64
2022-10-19T17:26:36.750Z,18.64
2022-10-19T17:29:42.331Z,18.60
2022-10-19T17:32:47.993Z,18.49
2022-10-19T17:35:53.809Z,18.43
2022-10-19T17:39:02.451Z,18.38
2022-10-19T17:42:07.785Z,18.36
2022-10-19T17:45:13.086Z,18.29
2022-10-19T17:48:19.512Z,18.25
2022-10-19T17:51:28.750Z,18.21
2022-10-19T17:54:43.485Z,18.15
2022-10-19T17:58:00.121Z,18.06
2022-10-19T18:01:06.631Z,18.06
2022-10-19T18:04:12.513Z,17.93
2022-10-19T18:07:19.280Z,17.87
2022-10-19T18:10:24.592Z,17.87
2022-10-19T18:13:31.602Z,17.79
2022-10-19T18:16:47.487Z,17.77
2022-10-19T18:19:52.867Z,17.62
2022-10-19T18:22:58.247Z,17.44
2022-10-19T18:26:12.661Z,17.49
2022-10-19T18:29:24.315Z,17.63
2022-10-19T18:32:29.881Z,17.41
2022-10-19T18:35:37.850Z,17.46
2022-10-19T18:38:43.327Z,17.42
2022-10-19T18:41:56.569Z,17.33
2022-10-19T18:45:01.825Z,17.21
2022-10-19T18:48:06.994Z,17.27
2022-10-19T18:51:12.418Z,17.19
2022-10-19T18:54:17.917Z,17.17
2022-10-19T18:57:25.485Z,17.14
2022-10-19T19:00:32.894Z,17.14
2022-10-19T19:03:40.856Z,17.12
2022-10-19T19:06:46.482Z,17.05
2022-10-19T19:09:52.455Z,17.06
2022-10-19T19:12:58.566Z,17.02
2022-10-19T19:16:06.449Z,17.09
2022-10-19T19:19:16.559Z,17.02
2022-10-19T19:22:26.875Z,17.02
2022-10-19T19:25:33.516Z,16.97
2022-10-19T19:28:42.274Z,17.04
2022-10-19T19:31:48.891Z,16.96
2022-10-19T19:34:55.084Z,16.86
2022-10-19T19:38:01.654Z,16.85
2022-10-19T19:41:10.688Z,16.73
2022-10-19T19:44:18.848Z,16.68
2022-10-19T19:47:25.500Z,16.71
2022-10-19T19:50:34.614Z,16.80
2022-10-19T19:53:42.469Z,16.79
2022-10-19T19:56:52.619Z,16.72
2022-10-19T19:59:58.053Z,16.73
2022-10-19T20:03:03.519Z,16.65
2022-10-19T20:06:10.658Z,16.65
2022-10-19T20:09:17.086Z,16.66
2022-10-19T20:12:22.719Z,16.61
2022-10-19T20:15:28.284Z,16.67
2022-10-19T20:18:34.740Z,16.65
2022-10-19T20:21:41.222Z,16.64
2022-10-19T20:24:46.664Z,16.76
2022-10-19T20:27:51.874Z,16.79
2022-10-19T20:31:08.654Z,16.76
2022-10-19T20:34:14.303Z,16.82
2022-10-19T20:37:21.146Z,16.68
2022-10-19T20:40:27.146Z,16.83
2022-10-19T20:43:34.002Z,16.80
2022-10-19T20:46:39.322Z,16.87
2022-10-19T20:49:44.780Z,16.94
2022-10-19T20:52:50.500Z,16.89
2022-10-19T20:55:55.802Z,16.90
2022-10-19T20:59:30.650Z,16.92
2022-10-19T21:02:36.840Z,16.89
2022-10-19T21:05:42.549Z,16.94
2022-10-19T21:08:48.067Z,16.89
2022-10-19T21:11:53.807Z,16.85
2022-10-19T21:14:59.255Z,16.80
2022-10-19T21:18:04.568Z,16.74
2022-10-19T21:21:21.694Z,16.68
2022-10-19T21:24:32.370Z,16.58
2022-10-19T21:27:38.029Z,16.41
2022-10-19T21:30:44.058Z,16.42
2022-10-19T21:33:51.259Z,16.28
2022-10-19T21:36:57.027Z,16.29
2022-10-19T21:40:03.959Z,16.35
2022-10-19T21:43:11.599Z,16.32
2022-10-19T21:46:19.552Z,16.30
2022-10-19T21:49:25.234Z,16.29
2022-10-19T21:52:30.647Z,16.24
2022-10-19T21:55:36.820Z,16.27
2022-10-19T21:58:50.687Z,16.20
2022-10-19T22:01:56.542Z,16.04
2022-10-19T22:05:02.207Z,15.99
2022-10-19T22:08:07.458Z,15.94
2022-10-19T22:11:14.474Z,15.90
2022-10-19T22:14:21.701Z,15.83
2022-10-19T22:17:26.926Z,15.86
2022-10-19T22:20:34.181Z,15.83
2022-10-19T22:23:40.254Z,15.83
2022-10-19T22:26:48.025Z,15.98
2022-10-19T22:29:54.328Z,15.88
2022-10-19T22:32:59.648Z,15.80
2022-10-19T22:36:07.823Z,15.70
2022-10-19T22:39:14.183Z,15.84
2022-10-19T22:42:19.561Z,15.91
2022-10-19T22:45:25.089Z,15.95
2022-10-19T22:48:30.686Z,15.98
2022-10-19T22:51:36.375Z,15.94
2022-10-19T22:54:41.753Z,15.93
2022-10-19T22:57:47.342Z,15.86
2022-10-19T23:01:08.330Z,15.80
2022-10-19T23:04:14.193Z,15.85
2022-10-19T23:07:19.654Z,15.84
2022-10-19T23:10:25.563Z,15.78
2022-10-19T23:13:31.221Z,15.61
2022-10-19T23:16:36.535Z,15.64
2022-10-19T23:19:41.629Z,15.64
2022-10-19T23:22:46.777Z,15.55
2022-10-19T23:26:04.100Z,15.55
2022-10-19T23:29:09.294Z,15.51
2022-10-19T23:32:14.380Z,15.47
2022-10-19T23:35:19.486Z,15.55
2022-10-19T23:38:24.950Z,15.50
2022-10-19T23:41:30.186Z,15.45
2022-10-19T23:44:35.454Z,15.47
2022-10-19T23:47:41.278Z,15.41
2022-10-19T23:50:46.665Z,15.30
2022-10-19T23:53:53.233Z,15.36
2022-10-19T23:56:58.562Z,15.35
